TRA6257 EHRD-LDSP
Flight info
| Callsign | TRA6257 |
|---|---|
| Flight time | 1h 34m |
| Altitude | 35000 |
| Route | LUNIX Z739 MISGO DCT DOJOH DCT DODEN DCT NEGIX DCT DINKU M867 XERUM DCT BAVAX DCT RADIZ DCT URAVA DCT GIRDA DCT ULPIN DCT SAL |
| Aircraft | B738/M-SDE2E3FGHIRWXY/LB1 |
Departure
| Time | 2026-05-06 19:29 |
|---|---|
| Airport | Rotterdam The Hague Airport (EHRD) |
Arrival
| Time | 2026-05-06 21:03 |
|---|---|
| Airport | Split Saint Jerome Airport (LDSP) |
| Time | Latitude | Longitude | Altitude | Speed | Heading |
|---|---|---|---|---|---|
| 2026-05-06 19:10 | 51.94964 | 4.43640 | 0 ft | 0 kts | 327° |
| 2026-05-06 19:24 | 51.94966 | 4.43638 | 1 ft | 2 kts | 327° |
| 2026-05-06 19:24 | 51.94996 | 4.43640 | 0 ft | 6 kts | 56° |
| 2026-05-06 19:25 | 51.95017 | 4.43662 | 0 ft | 5 kts | 353° |
| 2026-05-06 19:25 | 51.95097 | 4.43589 | 0 ft | 16 kts | 330° |
| 2026-05-06 19:25 | 51.95191 | 4.43491 | 0 ft | 16 kts | 327° |
| 2026-05-06 19:25 | 51.95236 | 4.43388 | 0 ft | 12 kts | 249° |
| 2026-05-06 19:26 | 51.95192 | 4.43272 | 0 ft | 12 kts | 236° |
| 2026-05-06 19:26 | 51.95151 | 4.43158 | 0 ft | 12 kts | 245° |
| 2026-05-06 19:26 | 51.95117 | 4.43048 | 1 ft | 5 kts | 243° |
| 2026-05-06 19:26 | 51.95109 | 4.43015 | 0 ft | 0 kts | 261° |
| 2026-05-06 19:27 | 51.95109 | 4.43012 | 0 ft | 2 kts | 262° |
| 2026-05-06 19:27 | 51.95134 | 4.42928 | 1 ft | 11 kts | 324° |
| 2026-05-06 19:28 | 51.95200 | 4.42863 | 1 ft | 11 kts | 348° |
| 2026-05-06 19:28 | 51.95287 | 4.43020 | 0 ft | 45 kts | 56° |
| 2026-05-06 19:28 | 51.95588 | 4.43774 | -1 ft | 114 kts | 57° |
| 2026-05-06 19:28 | 51.96126 | 4.45117 | 90 ft | 162 kts | 56° |
| 2026-05-06 19:29 | 51.96735 | 4.46631 | 950 ft | 157 kts | 54° |
| 2026-05-06 19:29 | 51.97334 | 4.48169 | 1735 ft | 161 kts | 57° |
| 2026-05-06 19:29 | 51.97930 | 4.49840 | 2183 ft | 186 kts | 60° |
| 2026-05-06 19:29 | 51.98574 | 4.51810 | 2426 ft | 210 kts | 63° |
| 2026-05-06 19:30 | 51.99240 | 4.54019 | 2738 ft | 230 kts | 63° |
| 2026-05-06 19:30 | 52.00032 | 4.56372 | 3002 ft | 245 kts | 52° |
| 2026-05-06 19:30 | 52.01303 | 4.58242 | 3005 ft | 247 kts | 33° |
| 2026-05-06 19:30 | 52.02849 | 4.59457 | 3007 ft | 247 kts | 24° |
| 2026-05-06 19:31 | 52.04433 | 4.60559 | 3093 ft | 249 kts | 25° |
| 2026-05-06 19:31 | 52.05830 | 4.62126 | 3767 ft | 249 kts | 46° |
| 2026-05-06 19:31 | 52.08208 | 4.66243 | 5461 ft | 255 kts | 45° |
| 2026-05-06 19:32 | 52.09453 | 4.68362 | 6237 ft | 260 kts | 45° |
| 2026-05-06 19:32 | 52.10720 | 4.70507 | 7009 ft | 264 kts | 45° |
| 2026-05-06 19:32 | 52.11958 | 4.72758 | 7690 ft | 273 kts | 57° |
| 2026-05-06 19:32 | 52.12461 | 4.75666 | 8369 ft | 280 kts | 91° |
| 2026-05-06 19:33 | 52.11986 | 4.78784 | 9145 ft | 286 kts | 107° |
| 2026-05-06 19:33 | 52.11336 | 4.81884 | 9855 ft | 292 kts | 107° |
| 2026-05-06 19:33 | 52.10676 | 4.85044 | 10375 ft | 304 kts | 107° |
| 2026-05-06 19:33 | 52.09973 | 4.88435 | 10555 ft | 327 kts | 108° |
| 2026-05-06 19:34 | 52.09223 | 4.92075 | 10737 ft | 349 kts | 108° |
| 2026-05-06 19:34 | 52.08433 | 4.95930 | 10891 ft | 370 kts | 107° |
| 2026-05-06 19:34 | 52.07604 | 4.99993 | 11283 ft | 382 kts | 108° |
| 2026-05-06 19:34 | 52.06763 | 5.04124 | 11897 ft | 386 kts | 108° |
| 2026-05-06 19:35 | 52.05914 | 5.08292 | 12541 ft | 390 kts | 108° |
| 2026-05-06 19:35 | 52.05065 | 5.12460 | 13168 ft | 395 kts | 108° |
| 2026-05-06 19:35 | 52.04197 | 5.16717 | 13796 ft | 399 kts | 108° |
| 2026-05-06 19:35 | 52.03320 | 5.21009 | 14361 ft | 402 kts | 108° |
| 2026-05-06 19:36 | 52.02434 | 5.25341 | 14937 ft | 406 kts | 108° |
| 2026-05-06 19:36 | 52.01571 | 5.29547 | 15481 ft | 409 kts | 108° |
| 2026-05-06 19:36 | 52.00665 | 5.33958 | 16047 ft | 413 kts | 108° |
| 2026-05-06 19:36 | 51.99761 | 5.38346 | 16582 ft | 416 kts | 108° |
| 2026-05-06 19:37 | 51.98827 | 5.42873 | 17163 ft | 419 kts | 108° |
| 2026-05-06 19:37 | 51.97905 | 5.47330 | 17712 ft | 422 kts | 108° |
| 2026-05-06 19:37 | 51.96963 | 5.51873 | 18237 ft | 426 kts | 108° |
| 2026-05-06 19:37 | 51.96333 | 5.54907 | 18533 ft | 428 kts | 108° |
| 2026-05-06 19:38 | 51.95052 | 5.61056 | 19170 ft | 432 kts | 109° |
| 2026-05-06 19:38 | 51.94089 | 5.65671 | 19646 ft | 434 kts | 109° |
| 2026-05-06 19:38 | 51.93113 | 5.70334 | 20097 ft | 437 kts | 109° |
| 2026-05-06 19:38 | 51.92132 | 5.75015 | 20535 ft | 440 kts | 109° |
| 2026-05-06 19:39 | 51.91154 | 5.79664 | 20973 ft | 443 kts | 109° |
| 2026-05-06 19:39 | 51.90157 | 5.84397 | 21401 ft | 446 kts | 109° |
| 2026-05-06 19:39 | 51.89151 | 5.89165 | 21822 ft | 448 kts | 109° |
| 2026-05-06 19:39 | 51.88136 | 5.93966 | 22214 ft | 451 kts | 109° |
| 2026-05-06 19:40 | 51.87112 | 5.98792 | 22605 ft | 454 kts | 110° |
| 2026-05-06 19:40 | 51.86024 | 6.03413 | 22969 ft | 457 kts | 116° |
| 2026-05-06 19:40 | 51.84461 | 6.07901 | 23355 ft | 458 kts | 125° |
| 2026-05-06 19:40 | 51.82501 | 6.11867 | 23703 ft | 458 kts | 134° |
| 2026-05-06 19:41 | 51.80332 | 6.15651 | 24067 ft | 459 kts | 134° |
| 2026-05-06 19:41 | 51.78172 | 6.19485 | 24423 ft | 460 kts | 133° |
| 2026-05-06 19:41 | 51.76035 | 6.23362 | 24753 ft | 462 kts | 133° |
| 2026-05-06 19:41 | 51.73904 | 6.27261 | 24935 ft | 465 kts | 133° |
| 2026-05-06 19:42 | 51.71780 | 6.31148 | 24919 ft | 465 kts | 133° |
| 2026-05-06 19:42 | 51.69643 | 6.35054 | 24924 ft | 463 kts | 133° |
| 2026-05-06 19:42 | 51.67508 | 6.38945 | 24934 ft | 463 kts | 133° |
| 2026-05-06 19:42 | 51.65364 | 6.42842 | 25059 ft | 468 kts | 133° |
| 2026-05-06 19:43 | 51.63192 | 6.46781 | 25435 ft | 467 kts | 133° |
| 2026-05-06 19:43 | 51.61061 | 6.50639 | 25898 ft | 464 kts | 133° |
| 2026-05-06 19:43 | 51.58912 | 6.54524 | 26255 ft | 465 kts | 133° |
| 2026-05-06 19:43 | 51.56757 | 6.58413 | 26474 ft | 468 kts | 133° |
| 2026-05-06 19:44 | 51.54586 | 6.62329 | 26711 ft | 470 kts | 133° |
| 2026-05-06 19:44 | 51.52400 | 6.66265 | 26989 ft | 472 kts | 133° |
| 2026-05-06 19:44 | 51.50214 | 6.70198 | 27367 ft | 471 kts | 133° |
| 2026-05-06 19:44 | 51.48039 | 6.74104 | 27823 ft | 468 kts | 133° |
| 2026-05-06 19:45 | 51.45866 | 6.78001 | 28200 ft | 467 kts | 133° |
| 2026-05-06 19:45 | 51.43699 | 6.81882 | 28535 ft | 467 kts | 133° |
| 2026-05-06 19:45 | 51.41556 | 6.85713 | 28922 ft | 466 kts | 133° |
| 2026-05-06 19:45 | 51.39361 | 6.89515 | 29361 ft | 464 kts | 135° |
| 2026-05-06 19:46 | 51.37075 | 6.93172 | 29791 ft | 462 kts | 137° |
| 2026-05-06 19:46 | 51.34765 | 6.96723 | 30214 ft | 458 kts | 137° |
| 2026-05-06 19:46 | 51.32502 | 7.00159 | 30580 ft | 457 kts | 138° |
| 2026-05-06 19:46 | 51.30214 | 7.03632 | 30836 ft | 458 kts | 138° |
| 2026-05-06 19:47 | 51.27907 | 7.07153 | 31046 ft | 459 kts | 137° |
| 2026-05-06 19:47 | 51.25596 | 7.10694 | 31351 ft | 458 kts | 137° |
| 2026-05-06 19:47 | 51.23305 | 7.14216 | 31675 ft | 457 kts | 137° |
| 2026-05-06 19:47 | 51.21058 | 7.17676 | 32001 ft | 455 kts | 137° |
| 2026-05-06 19:48 | 51.18788 | 7.21168 | 32362 ft | 453 kts | 138° |
| 2026-05-06 19:48 | 51.16509 | 7.24670 | 32613 ft | 453 kts | 138° |
| 2026-05-06 19:48 | 51.14245 | 7.28142 | 32831 ft | 454 kts | 138° |
| 2026-05-06 19:48 | 51.11971 | 7.31624 | 33085 ft | 454 kts | 138° |
| 2026-05-06 19:49 | 51.09702 | 7.35092 | 33391 ft | 452 kts | 138° |
| 2026-05-06 19:49 | 51.07442 | 7.38542 | 33697 ft | 451 kts | 138° |
| 2026-05-06 19:49 | 51.05170 | 7.42006 | 33930 ft | 451 kts | 138° |
| 2026-05-06 19:49 | 51.02896 | 7.45467 | 34099 ft | 452 kts | 138° |
| 2026-05-06 19:50 | 51.00627 | 7.48916 | 34270 ft | 453 kts | 138° |
| 2026-05-06 19:50 | 50.98357 | 7.52361 | 34467 ft | 453 kts | 138° |
| 2026-05-06 19:50 | 50.96107 | 7.55772 | 34643 ft | 453 kts | 138° |
| 2026-05-06 19:50 | 50.93817 | 7.59240 | 34864 ft | 452 kts | 139° |
| 2026-05-06 19:51 | 50.89235 | 7.66161 | 34869 ft | 454 kts | 139° |
| 2026-05-06 19:51 | 50.84698 | 7.72997 | 34858 ft | 450 kts | 139° |
| 2026-05-06 19:52 | 50.80155 | 7.79790 | 34844 ft | 448 kts | 139° |
| 2026-05-06 19:52 | 50.75615 | 7.86526 | 34838 ft | 446 kts | 139° |
| 2026-05-06 19:53 | 50.71116 | 7.93188 | 34831 ft | 445 kts | 139° |
| 2026-05-06 19:53 | 50.66593 | 7.99876 | 34829 ft | 446 kts | 140° |
| 2026-05-06 19:54 | 50.62118 | 8.06475 | 34860 ft | 447 kts | 140° |
| 2026-05-06 19:54 | 50.57834 | 8.13603 | 34863 ft | 452 kts | 131° |
| 2026-05-06 19:55 | 50.53949 | 8.21426 | 34849 ft | 454 kts | 130° |
| 2026-05-06 19:55 | 50.50051 | 8.29252 | 34847 ft | 454 kts | 131° |
| 2026-05-06 19:56 | 50.46125 | 8.36972 | 34828 ft | 455 kts | 132° |
| 2026-05-06 19:56 | 50.42160 | 8.44708 | 34830 ft | 455 kts | 132° |
| 2026-05-06 19:57 | 50.38189 | 8.52440 | 34834 ft | 454 kts | 133° |
| 2026-05-06 19:57 | 50.34037 | 8.59776 | 34831 ft | 451 kts | 136° |
| 2026-05-06 19:58 | 50.29709 | 8.66898 | 34844 ft | 450 kts | 137° |
| 2026-05-06 19:58 | 50.25402 | 8.73980 | 34835 ft | 449 kts | 137° |
| 2026-05-06 19:59 | 50.21837 | 8.79884 | 34842 ft | 448 kts | 136° |
| 2026-05-06 19:59 | 50.16864 | 8.88139 | 34838 ft | 448 kts | 136° |
| 2026-05-06 20:00 | 50.13311 | 8.94028 | 34837 ft | 447 kts | 136° |
| 2026-05-06 20:00 | 50.09136 | 9.00929 | 34844 ft | 446 kts | 136° |
| 2026-05-06 20:01 | 50.04893 | 9.07922 | 34837 ft | 446 kts | 136° |
| 2026-05-06 20:01 | 50.00642 | 9.14908 | 34810 ft | 445 kts | 137° |
| 2026-05-06 20:02 | 49.96379 | 9.21893 | 34811 ft | 445 kts | 137° |
| 2026-05-06 20:02 | 49.92122 | 9.28852 | 34830 ft | 443 kts | 137° |
| 2026-05-06 20:03 | 49.87869 | 9.35783 | 34809 ft | 443 kts | 137° |
| 2026-05-06 20:03 | 49.83643 | 9.42652 | 34825 ft | 442 kts | 137° |
| 2026-05-06 20:04 | 49.79393 | 9.49540 | 34817 ft | 441 kts | 137° |
| 2026-05-06 20:04 | 49.75138 | 9.56419 | 34808 ft | 441 kts | 137° |
| 2026-05-06 20:05 | 49.70914 | 9.63230 | 34812 ft | 440 kts | 137° |
| 2026-05-06 20:05 | 49.66657 | 9.70074 | 34816 ft | 440 kts | 137° |
| 2026-05-06 20:06 | 49.62424 | 9.76863 | 34819 ft | 441 kts | 138° |
| 2026-05-06 20:06 | 49.58168 | 9.83668 | 34823 ft | 441 kts | 138° |
| 2026-05-06 20:07 | 49.53929 | 9.90430 | 34792 ft | 441 kts | 138° |
| 2026-05-06 20:07 | 49.49663 | 9.97217 | 34823 ft | 441 kts | 138° |
| 2026-05-06 20:08 | 49.45463 | 10.03881 | 34833 ft | 442 kts | 138° |
| 2026-05-06 20:08 | 49.41169 | 10.10675 | 34831 ft | 443 kts | 138° |
| 2026-05-06 20:09 | 49.36873 | 10.17457 | 34831 ft | 444 kts | 138° |
| 2026-05-06 20:09 | 49.32568 | 10.24235 | 34839 ft | 444 kts | 138° |
| 2026-05-06 20:10 | 49.28276 | 10.30978 | 34826 ft | 444 kts | 139° |
| 2026-05-06 20:10 | 49.23902 | 10.37673 | 34856 ft | 441 kts | 143° |
| 2026-05-06 20:11 | 49.18867 | 10.42784 | 34875 ft | 435 kts | 153° |
| 2026-05-06 20:11 | 49.13623 | 10.47450 | 34870 ft | 436 kts | 153° |
| 2026-05-06 20:12 | 49.08416 | 10.52135 | 34884 ft | 436 kts | 153° |
| 2026-05-06 20:12 | 49.03192 | 10.56869 | 34879 ft | 436 kts | 153° |
| 2026-05-06 20:13 | 48.98000 | 10.61574 | 34862 ft | 436 kts | 153° |
| 2026-05-06 20:13 | 48.92772 | 10.66297 | 34883 ft | 436 kts | 153° |
| 2026-05-06 20:14 | 48.87553 | 10.71001 | 34894 ft | 437 kts | 153° |
| 2026-05-06 20:14 | 48.82332 | 10.75772 | 34878 ft | 439 kts | 149° |
| 2026-05-06 20:15 | 48.77834 | 10.82052 | 34887 ft | 446 kts | 136° |
| 2026-05-06 20:15 | 48.73699 | 10.89120 | 34874 ft | 447 kts | 136° |
| 2026-05-06 20:16 | 48.69546 | 10.96170 | 34848 ft | 447 kts | 136° |
| 2026-05-06 20:16 | 48.65505 | 11.02950 | 34856 ft | 447 kts | 137° |
| 2026-05-06 20:17 | 48.61343 | 11.09888 | 34860 ft | 447 kts | 137° |
| 2026-05-06 20:17 | 48.57144 | 11.16866 | 34858 ft | 447 kts | 137° |
| 2026-05-06 20:18 | 48.52945 | 11.23829 | 34858 ft | 448 kts | 137° |
| 2026-05-06 20:18 | 48.48767 | 11.30739 | 34856 ft | 447 kts | 137° |
| 2026-05-06 20:19 | 48.44565 | 11.37671 | 34870 ft | 447 kts | 137° |
| 2026-05-06 20:19 | 48.40355 | 11.44597 | 34877 ft | 448 kts | 137° |
| 2026-05-06 20:20 | 48.36155 | 11.51491 | 34881 ft | 448 kts | 137° |
| 2026-05-06 20:20 | 48.31932 | 11.58405 | 34885 ft | 449 kts | 137° |
| 2026-05-06 20:21 | 48.27697 | 11.65321 | 34850 ft | 449 kts | 138° |
| 2026-05-06 20:21 | 48.23332 | 11.71894 | 34883 ft | 445 kts | 143° |
| 2026-05-06 20:22 | 48.18735 | 11.78129 | 34887 ft | 445 kts | 143° |
| 2026-05-06 20:22 | 48.14120 | 11.84353 | 34884 ft | 446 kts | 143° |
| 2026-05-06 20:23 | 48.09554 | 11.90563 | 34886 ft | 447 kts | 143° |
| 2026-05-06 20:23 | 48.04946 | 11.96847 | 34885 ft | 447 kts | 143° |
| 2026-05-06 20:24 | 48.00446 | 12.02974 | 34881 ft | 447 kts | 143° |
| 2026-05-06 20:24 | 47.95872 | 12.09186 | 34889 ft | 448 kts | 143° |
| 2026-05-06 20:25 | 47.91245 | 12.15452 | 34897 ft | 448 kts | 143° |
| 2026-05-06 20:25 | 47.86637 | 12.21675 | 34892 ft | 449 kts | 144° |
| 2026-05-06 20:26 | 47.82002 | 12.27920 | 34891 ft | 450 kts | 144° |
| 2026-05-06 20:26 | 47.77345 | 12.34179 | 34889 ft | 450 kts | 144° |
| 2026-05-06 20:27 | 47.72717 | 12.40384 | 34883 ft | 451 kts | 144° |
| 2026-05-06 20:27 | 47.68050 | 12.46630 | 34882 ft | 451 kts | 144° |
| 2026-05-06 20:28 | 47.51614 | 12.63428 | 34854 ft | 440 kts | 158° |
| 2026-05-06 20:28 | 47.13816 | 12.94604 | 34915 ft | 437 kts | 157° |
| 2026-05-06 20:29 | 46.72575 | 13.28259 | 34803 ft | 435 kts | 158° |
| 2026-05-06 20:29 | 46.30026 | 13.61755 | 34934 ft | 428 kts | 162° |
| 2026-05-06 20:30 | 45.63937 | 14.03230 | 34914 ft | 448 kts | 162° |
| 2026-05-06 20:31 | 45.18888 | 14.32783 | 34948 ft | 444 kts | 160° |
| 2026-05-06 20:31 | 44.75144 | 14.62202 | 34939 ft | 436 kts | 161° |
| 2026-05-06 20:32 | 44.53071 | 14.77100 | 34967 ft | 422 kts | 160° |
| 2026-05-06 20:32 | 44.50507 | 14.78873 | 34972 ft | 400 kts | 161° |
| 2026-05-06 20:32 | 44.48064 | 14.80554 | 34963 ft | 380 kts | 161° |
| 2026-05-06 20:32 | 44.45732 | 14.82145 | 34734 ft | 368 kts | 162° |
| 2026-05-06 20:33 | 44.43386 | 14.83720 | 33901 ft | 379 kts | 162° |
| 2026-05-06 20:33 | 44.40991 | 14.85310 | 32758 ft | 395 kts | 162° |
| 2026-05-06 20:33 | 44.38450 | 14.86997 | 31523 ft | 412 kts | 161° |
| 2026-05-06 20:33 | 44.35799 | 14.88762 | 30255 ft | 430 kts | 160° |
| 2026-05-06 20:34 | 44.33056 | 14.90597 | 28907 ft | 443 kts | 160° |
| 2026-05-06 20:34 | 44.30232 | 14.92494 | 27592 ft | 454 kts | 160° |
| 2026-05-06 20:34 | 44.27413 | 14.94392 | 26637 ft | 457 kts | 160° |
| 2026-05-06 20:34 | 44.24558 | 14.96316 | 26004 ft | 453 kts | 159° |
| 2026-05-06 20:35 | 44.21724 | 14.98224 | 25431 ft | 446 kts | 160° |
| 2026-05-06 20:35 | 44.18983 | 15.00063 | 24817 ft | 443 kts | 160° |
| 2026-05-06 20:35 | 44.16276 | 15.01871 | 24107 ft | 442 kts | 159° |
| 2026-05-06 20:35 | 44.13497 | 15.03722 | 23316 ft | 442 kts | 159° |
| 2026-05-06 20:36 | 44.10723 | 15.05567 | 22606 ft | 439 kts | 159° |
| 2026-05-06 20:36 | 44.07976 | 15.07396 | 22057 ft | 432 kts | 159° |
| 2026-05-06 20:36 | 44.05297 | 15.09177 | 21310 ft | 431 kts | 159° |
| 2026-05-06 20:36 | 44.02603 | 15.10966 | 20735 ft | 426 kts | 158° |
| 2026-05-06 20:37 | 43.99943 | 15.12731 | 20154 ft | 421 kts | 158° |
| 2026-05-06 20:37 | 43.97313 | 15.14474 | 19580 ft | 417 kts | 158° |
| 2026-05-06 20:37 | 43.94710 | 15.16200 | 19023 ft | 412 kts | 157° |
| 2026-05-06 20:37 | 43.92276 | 15.18316 | 18458 ft | 414 kts | 144° |
| 2026-05-06 20:38 | 43.90131 | 15.20892 | 17863 ft | 411 kts | 142° |
| 2026-05-06 20:38 | 43.88009 | 15.23534 | 17244 ft | 407 kts | 141° |
| 2026-05-06 20:38 | 43.85909 | 15.26142 | 16684 ft | 403 kts | 142° |
| 2026-05-06 20:38 | 43.83824 | 15.28701 | 16132 ft | 398 kts | 142° |
| 2026-05-06 20:39 | 43.81748 | 15.31217 | 15574 ft | 395 kts | 142° |
| 2026-05-06 20:39 | 43.79676 | 15.33707 | 15049 ft | 392 kts | 142° |
| 2026-05-06 20:39 | 43.77637 | 15.36144 | 14504 ft | 389 kts | 142° |
| 2026-05-06 20:39 | 43.75584 | 15.38592 | 13983 ft | 386 kts | 142° |
| 2026-05-06 20:40 | 43.73566 | 15.40995 | 13421 ft | 383 kts | 142° |
| 2026-05-06 20:40 | 43.71553 | 15.43389 | 12852 ft | 380 kts | 142° |
| 2026-05-06 20:40 | 43.69603 | 15.45707 | 12324 ft | 376 kts | 142° |
| 2026-05-06 20:40 | 43.67641 | 15.48038 | 11806 ft | 373 kts | 143° |
| 2026-05-06 20:41 | 43.65715 | 15.50327 | 11301 ft | 369 kts | 143° |
| 2026-05-06 20:41 | 43.63780 | 15.52621 | 11053 ft | 359 kts | 142° |
| 2026-05-06 20:41 | 43.61912 | 15.54837 | 10881 ft | 347 kts | 143° |
| 2026-05-06 20:41 | 43.60131 | 15.56946 | 10733 ft | 336 kts | 143° |
| 2026-05-06 20:42 | 43.58380 | 15.59017 | 10593 ft | 325 kts | 142° |
| 2026-05-06 20:42 | 43.56717 | 15.60981 | 10454 ft | 316 kts | 143° |
| 2026-05-06 20:42 | 43.55069 | 15.62927 | 10313 ft | 307 kts | 143° |
| 2026-05-06 20:42 | 43.53469 | 15.64814 | 10182 ft | 298 kts | 143° |
| 2026-05-06 20:43 | 43.51916 | 15.66647 | 10047 ft | 289 kts | 141° |
| 2026-05-06 20:43 | 43.50424 | 15.68405 | 9916 ft | 282 kts | 143° |
| 2026-05-06 20:43 | 43.48939 | 15.70151 | 9622 ft | 280 kts | 143° |
| 2026-05-06 20:43 | 43.47458 | 15.71891 | 9349 ft | 278 kts | 143° |
| 2026-05-06 20:44 | 43.45996 | 15.73610 | 9065 ft | 275 kts | 142° |
| 2026-05-06 20:44 | 43.44539 | 15.75321 | 8782 ft | 274 kts | 141° |
| 2026-05-06 20:44 | 43.43096 | 15.77012 | 8514 ft | 272 kts | 143° |
| 2026-05-06 20:44 | 43.41637 | 15.78594 | 8240 ft | 268 kts | 153° |
| 2026-05-06 20:45 | 43.39877 | 15.79246 | 7969 ft | 260 kts | 182° |
| 2026-05-06 20:45 | 43.38149 | 15.78734 | 7806 ft | 251 kts | 205° |
| 2026-05-06 20:45 | 43.36703 | 15.77416 | 7615 ft | 249 kts | 222° |
| 2026-05-06 20:45 | 43.35488 | 15.75758 | 7455 ft | 249 kts | 224° |
| 2026-05-06 20:46 | 43.34278 | 15.74033 | 7277 ft | 251 kts | 224° |
| 2026-05-06 20:46 | 43.32950 | 15.72480 | 7066 ft | 252 kts | 204° |
| 2026-05-06 20:46 | 43.31245 | 15.72019 | 6919 ft | 251 kts | 176° |
| 2026-05-06 20:46 | 43.29580 | 15.72604 | 6743 ft | 254 kts | 155° |
| 2026-05-06 20:47 | 43.28150 | 15.74022 | 6587 ft | 260 kts | 140° |
| 2026-05-06 20:47 | 43.26855 | 15.75795 | 6392 ft | 265 kts | 134° |
| 2026-05-06 20:47 | 43.26185 | 15.77208 | 6235 ft | 271 kts | 115° |
| 2026-05-06 20:47 | 43.26016 | 15.79782 | 6037 ft | 277 kts | 79° |
| 2026-05-06 20:48 | 43.26877 | 15.82122 | 5819 ft | 278 kts | 55° |
| 2026-05-06 20:48 | 43.27880 | 15.84371 | 5552 ft | 274 kts | 66° |
| 2026-05-06 20:48 | 43.28762 | 15.86696 | 5354 ft | 273 kts | 64° |
| 2026-05-06 20:48 | 43.29704 | 15.88965 | 5163 ft | 273 kts | 62° |
| 2026-05-06 20:49 | 43.30825 | 15.91036 | 5097 ft | 270 kts | 51° |
| 2026-05-06 20:49 | 43.32102 | 15.92927 | 4892 ft | 276 kts | 50° |
| 2026-05-06 20:49 | 43.33428 | 15.94858 | 4698 ft | 279 kts | 50° |
| 2026-05-06 20:49 | 43.34752 | 15.96817 | 4463 ft | 277 kts | 51° |
| 2026-05-06 20:50 | 43.36044 | 15.98768 | 4248 ft | 273 kts | 51° |
| 2026-05-06 20:50 | 43.37266 | 16.00632 | 4049 ft | 269 kts | 51° |
| 2026-05-06 20:50 | 43.38492 | 16.02510 | 3849 ft | 265 kts | 52° |
| 2026-05-06 20:50 | 43.39718 | 16.04386 | 3645 ft | 261 kts | 53° |
| 2026-05-06 20:51 | 43.40857 | 16.06293 | 3486 ft | 253 kts | 58° |
| 2026-05-06 20:51 | 43.41883 | 16.08170 | 3531 ft | 239 kts | 58° |
| 2026-05-06 20:51 | 43.42862 | 16.09949 | 3383 ft | 236 kts | 58° |
| 2026-05-06 20:51 | 43.43842 | 16.11715 | 3086 ft | 227 kts | 58° |
| 2026-05-06 20:52 | 43.44786 | 16.13411 | 2795 ft | 215 kts | 58° |
| 2026-05-06 20:52 | 43.45661 | 16.14982 | 2499 ft | 195 kts | 60° |
| 2026-05-06 20:52 | 43.46424 | 16.16356 | 2286 ft | 173 kts | 63° |
| 2026-05-06 20:52 | 43.47121 | 16.17607 | 2082 ft | 155 kts | 63° |
| 2026-05-06 20:53 | 43.47765 | 16.18776 | 1859 ft | 152 kts | 61° |
| 2026-05-06 20:53 | 43.48404 | 16.19928 | 1655 ft | 149 kts | 60° |
| 2026-05-06 20:53 | 43.49031 | 16.21025 | 1813 ft | 145 kts | 60° |
| 2026-05-06 20:53 | 43.49691 | 16.22121 | 2186 ft | 153 kts | 59° |
| 2026-05-06 20:54 | 43.50412 | 16.23133 | 2846 ft | 145 kts | 48° |
| 2026-05-06 20:54 | 43.51113 | 16.24203 | 3127 ft | 160 kts | 70° |
| 2026-05-06 20:54 | 43.51745 | 16.25630 | 3365 ft | 188 kts | 67° |
| 2026-05-06 20:54 | 43.52151 | 16.27227 | 3365 ft | 165 kts | 109° |
| 2026-05-06 20:55 | 43.51581 | 16.28387 | 3399 ft | 144 kts | 152° |
| 2026-05-06 20:55 | 43.50651 | 16.28488 | 3388 ft | 141 kts | 201° |
| 2026-05-06 20:55 | 43.49820 | 16.27589 | 3383 ft | 158 kts | 209° |
| 2026-05-06 20:55 | 43.48953 | 16.26713 | 3388 ft | 158 kts | 210° |
| 2026-05-06 20:56 | 43.48106 | 16.25782 | 3394 ft | 154 kts | 210° |
| 2026-05-06 20:56 | 43.47289 | 16.24862 | 3390 ft | 147 kts | 210° |
| 2026-05-06 20:56 | 43.46506 | 16.23961 | 3398 ft | 148 kts | 211° |
| 2026-05-06 20:56 | 43.45700 | 16.23031 | 3405 ft | 153 kts | 210° |
| 2026-05-06 20:57 | 43.44884 | 16.22098 | 3387 ft | 153 kts | 212° |
| 2026-05-06 20:57 | 43.44041 | 16.21210 | 3402 ft | 156 kts | 211° |
| 2026-05-06 20:57 | 43.43162 | 16.20312 | 3403 ft | 157 kts | 205° |
| 2026-05-06 20:57 | 43.42142 | 16.20000 | 3421 ft | 149 kts | 181° |
| 2026-05-06 20:58 | 43.41239 | 16.19371 | 3366 ft | 154 kts | 233° |
| 2026-05-06 20:58 | 43.41185 | 16.17845 | 3381 ft | 177 kts | 289° |
| 2026-05-06 20:58 | 43.41899 | 16.16400 | 3240 ft | 185 kts | 300° |
| 2026-05-06 20:58 | 43.42784 | 16.15121 | 3041 ft | 187 kts | 319° |
| 2026-05-06 20:59 | 43.43911 | 16.14294 | 2815 ft | 183 kts | 356° |
| 2026-05-06 20:59 | 43.45113 | 16.14571 | 2616 ft | 173 kts | 36° |
| 2026-05-06 20:59 | 43.45955 | 16.15646 | 2414 ft | 160 kts | 59° |
| 2026-05-06 20:59 | 43.46662 | 16.16814 | 2196 ft | 160 kts | 60° |
| 2026-05-06 21:00 | 43.47333 | 16.18001 | 1979 ft | 154 kts | 60° |
| 2026-05-06 21:00 | 43.47974 | 16.19149 | 1800 ft | 148 kts | 64° |
| 2026-05-06 21:00 | 43.48592 | 16.20274 | 1597 ft | 144 kts | 61° |
| 2026-05-06 21:00 | 43.49182 | 16.21335 | 1376 ft | 144 kts | 56° |
| 2026-05-06 21:01 | 43.49815 | 16.22455 | 1220 ft | 153 kts | 58° |
| 2026-05-06 21:01 | 43.50469 | 16.23641 | 1017 ft | 157 kts | 56° |
| 2026-05-06 21:01 | 43.51116 | 16.24799 | 823 ft | 147 kts | 58° |
| 2026-05-06 21:01 | 43.51731 | 16.25902 | 637 ft | 146 kts | 56° |
| 2026-05-06 21:02 | 43.52355 | 16.27033 | 430 ft | 154 kts | 56° |
| 2026-05-06 21:02 | 43.53002 | 16.28201 | 176 ft | 153 kts | 56° |
| 2026-05-06 21:02 | 43.53623 | 16.29283 | 91 ft | 131 kts | 58° |
| 2026-05-06 21:02 | 43.54105 | 16.30177 | 75 ft | 98 kts | 52° |
| 2026-05-06 21:03 | 43.54427 | 16.30753 | 75 ft | 47 kts | 52° |
| 2026-05-06 21:03 | 43.54528 | 16.30953 | 69 ft | 17 kts | 64° |
| 2026-05-06 21:03 | 43.54575 | 16.31052 | 68 ft | 9 kts | 329° |
| 2026-05-06 21:03 | 43.54550 | 16.30979 | 66 ft | 12 kts | 231° |
| 2026-05-06 21:04 | 43.54464 | 16.30823 | 64 ft | 25 kts | 233° |
| 2026-05-06 21:04 | 43.54365 | 16.30644 | 76 ft | 23 kts | 234° |
| 2026-05-06 21:04 | 43.54252 | 16.30439 | 82 ft | 30 kts | 232° |
| 2026-05-06 21:04 | 43.54125 | 16.30212 | 75 ft | 29 kts | 232° |
| 2026-05-06 21:05 | 43.54029 | 16.30106 | 72 ft | 9 kts | 200° |
| 2026-05-06 21:05 | 43.53961 | 16.30079 | 75 ft | 10 kts | 194° |
| 2026-05-06 21:05 | 43.53898 | 16.30039 | 70 ft | 10 kts | 226° |
| 2026-05-06 21:05 | 43.53853 | 16.29966 | 78 ft | 10 kts | 229° |
| 2026-05-06 21:06 | 43.53813 | 16.29891 | 79 ft | 10 kts | 236° |
| 2026-05-06 21:06 | 43.53783 | 16.29871 | 71 ft | 6 kts | 135° |
| 2026-05-06 21:06 | 43.53762 | 16.29925 | 77 ft | 0 kts | 114° |